Have a Safe July 4th! 

Flight Track Log - Related Links

Times and Time Zones

All times are in EDT time to prevent confusion due to time zone crossing. See the GJS3707 flight status page for this flight to view local times or setup timezone preferences in your user account.

Time Position Orientation Groundspeed Altitude Reporting Facility
EDT Latitude Longitude Course Direction KTS MPH feet Rate Location/Type
Wed 03:04:11 PM 43.5922 -116.3061 295° West 214 246 5,200  Level Salt Lake Center
Wed 03:04:23 PM 43.5933 -116.3172 278° West 196 226 5,500 1,574 Climbing Salt Lake Center
Wed 03:05:12 PM 43.6431 -116.3389 342° North 248 285 6,800 1,355 Climbing Salt Lake Center
Wed 03:05:25 PM 43.6494 -116.3364 16° North 244 281 6,900 2,000 Climbing Salt Lake Center
Wed 03:06:27 PM 43.6681 -116.2306 76° East 290 334 9,300 1,935 Climbing Salt Lake Center
Wed 03:07:00 PM 43.6212 -115.3533 76° East  Level Estimated
Wed 03:07:29 PM 43.6881 -116.1150 77° East 311 358 10,900  Level Salt Lake Center
Wed 03:08:00 PM 43.6318 -115.1793 82° East  Level Estimated
Wed 03:08:31 PM 43.7075 -115.9581 80° East 345 397 12,900  Level Salt Lake Center
Wed 03:09:33 PM 43.7233 -115.8172 81° East 367 422 14,600 1,597 Climbing Salt Lake Center
Wed 03:10:35 PM 43.7408 -115.6731 80° East 380 437 16,200 1,548 Climbing Salt Lake Center
Wed 03:11:37 PM 43.7575 -115.5217 81° East 396 456 17,800 1,645 Climbing Salt Lake Center
Wed 03:12:39 PM 43.7758 -115.3697 80° East 402 463 19,600 1,500 Climbing Salt Lake Center
Wed 03:13:41 PM 43.7969 -115.1808 81° East 416 479 20,900 1,161 Climbing Salt Lake Center
Wed 03:14:43 PM 43.8158 -115.0161 81° East 433 498 22,000 1,210 Climbing Salt Lake Center
Wed 03:15:45 PM 43.8339 -114.8475 81° East 444 511 23,400 1,355 Climbing Salt Lake Center
Wed 03:16:47 PM 43.8517 -114.6786 82° East 446 513 24,800 1,210 Climbing Salt Lake Center
Wed 03:17:49 PM 43.8711 -114.5097 81° East 447 514 25,900 919 Climbing Salt Lake Center
Wed 03:18:51 PM 43.8889 -114.3339 82° East 460 529 26,700 774 Climbing Salt Lake Center
Wed 03:19:53 PM 43.9114 -114.1169 82° East 475 547 27,500 823 Climbing Salt Lake Center
Wed 03:20:55 PM 43.9311 -113.9350 81° East 480 552 28,400 871 Climbing Salt Lake Center
Wed 03:21:57 PM 43.9500 -113.7475 82° East 482 555 29,300 871 Climbing Salt Lake Center
Wed 03:22:59 PM 43.9667 -113.5703 82° East 484 557 30,200 919 Climbing Salt Lake Center
Wed 03:24:01 PM 43.9836 -113.3644 83° East 482 555 31,200 919 Climbing Salt Lake Center
Wed 03:25:03 PM 44.0017 -113.1861 82° East 486 559 32,100 823 Climbing Salt Lake Center
Wed 03:26:05 PM 44.0208 -112.9806 83° East 483 556 32,900 677 Climbing Salt Lake Center
Wed 03:27:07 PM 44.0378 -112.8022 82° East 486 559 33,500 484 Climbing Salt Lake Center
Wed 03:28:09 PM 44.0569 -112.5925 83° East 489 563 33,900 435 Climbing Salt Lake Center
Wed 03:29:11 PM 44.0711 -112.4086 84° East 499 574 34,400 581 Climbing Salt Lake Center
Wed 03:30:13 PM 44.0886 -112.1903 84° East 508 585 35,100 677 Climbing Salt Lake Center
Wed 03:31:15 PM 44.0903 -112.0106 89° East 488 562 35,800 677 Climbing Salt Lake Center
Wed 03:32:17 PM 44.0917 -111.7989 89° East 491 565 36,500 581 Climbing Salt Lake Center
Wed 03:33:19 PM 44.0933 -111.6217 89° East 485 558 37,000 242 Climbing Salt Lake Center
Wed 03:34:21 PM 44.0936 -111.4111 90° East 490 564 37,000  Level Salt Lake Center
Wed 03:35:23 PM 44.0939 -111.2272 90° East 499 574 37,000  Level Salt Lake Center
Wed 03:36:25 PM 44.0939 -111.0119 90° East 503 579 37,000  Level Salt Lake Center
Wed 03:37:27 PM 44.0933 -110.8239 90° East 509 586 37,000  Level Salt Lake Center
Wed 03:38:29 PM 44.0931 -110.6028 90° East 512 589 37,000  Level Salt Lake Center
Wed 03:39:31 PM 44.0928 -110.4164 90° East 507 583 37,000  Level Salt Lake Center
Wed 03:40:33 PM 44.0911 -110.1986 91° East 505 581 37,000  Level Salt Lake Center
Wed 03:41:35 PM 44.0906 -110.0125 90° East 503 579 37,000  Level Salt Lake Center
Wed 03:42:37 PM 44.0878 -109.7953 91° East 505 581 37,000  Level Salt Lake Center
Wed 03:44:00 PM 44.0844 -109.5520 91° East  Level FlightAware Approximate
Wed 03:47:46 PM 44.0725 -108.8092 92° East 499 574 37,000  Level Salt Lake Center
Wed 03:48:48 PM 44.0681 -108.6117 92° East 507 583 37,000  Level Salt Lake Center
Wed 03:49:50 PM 44.0625 -108.4089 92° East 521 600 37,000  Level Salt Lake Center
Wed 03:50:52 PM 44.0572 -108.2097 92° East 521 600 37,000  Level Salt Lake Center
Wed 03:51:00 PM 44.0592 -108.3215 91° East  Level FlightAware Approximate
Wed 03:51:54 PM 44.0508 -107.9719 92° East 519 597 37,000  Level Salt Lake Center
Wed 03:52:00 PM 44.0545 -108.1458 92° East  Level FlightAware Approximate
Wed 03:52:56 PM 44.0464 -107.7717 92° East 522 601 37,000  Level Salt Lake Center
Wed 03:53:00 PM 44.0496 -107.9702 92° East  Level FlightAware Approximate
Wed 03:53:58 PM 44.0394 -107.5708 93° East 524 603 37,000  Level Salt Lake Center
Wed 03:55:00 PM 44.0336 -107.3672 92° East 529 609 37,000  Level Salt Lake Center
Wed 03:56:01 PM 44.0281 -107.1658 92° East 528 608 37,000  Level Salt Lake Center
Wed 03:57:03 PM 44.0200 -106.9656 93° East 523 602 37,000  Level Salt Lake Center
Wed 03:58:05 PM 44.0103 -106.7217 93° East 530 610 37,000  Level Salt Lake Center
Wed 03:59:07 PM 44.0031 -106.5172 93° East 533 613 37,000  Level Salt Lake Center
Wed 04:00:12 PM 44.0008 -106.2919 91° East 535 616 37,000  Level Denver Center
Wed 04:01:14 PM 44.0028 -106.0928 89° East 537 618 37,000  Level Denver Center
Wed 04:02:16 PM 44.0100 -105.8614 87° East 535 616 37,000  Level Denver Center
Wed 04:03:18 PM 44.0331 -105.6642 81° East 536 617 37,000  Level Denver Center
Wed 04:04:20 PM 44.0836 -105.4369 73° East 543 625 37,000 145 Level Denver Center
Wed 04:05:22 PM 44.1292 -105.2464 72° East 544 626 37,300 581 Climbing Denver Center
Wed 04:06:24 PM 44.1906 -105.0286 68° East 542 624 38,200 677 Climbing Denver Center
Wed 04:07:26 PM 44.2314 -104.8775 69° East 531 611 38,700 387 Climbing Denver Center
Wed 04:08:28 PM 44.2842 -104.6617 71° East 526 605 39,000 145 Climbing Denver Center
Wed 04:09:30 PM 44.3283 -104.4475 74° East 519 597 39,000  Level Denver Center
Wed 04:10:32 PM 44.3233 -104.2900 92° East 513 590 39,000  Level Denver Center
Wed 04:11:34 PM 44.3078 -104.0411 95° East 505 581 39,000  Level Denver Center
Wed 04:12:36 PM 44.2950 -103.8514 95° East 510 587 39,000  Level Denver Center
Wed 04:13:38 PM 44.2797 -103.6289 95° East 516 594 39,000  Level Denver Center
Wed 04:14:40 PM 44.2669 -103.4378 95° East 516 594 39,000  Level Denver Center
Wed 04:15:42 PM 44.2517 -103.2158 95° East 515 593 39,000  Level Denver Center
Wed 04:16:44 PM 44.2367 -103.0131 96° East 511 588 39,000  Level Denver Center
Wed 04:17:46 PM 44.2214 -102.8172 96° East 512 589 39,000  Level Denver Center
Wed 04:18:48 PM 44.2078 -102.6225 96° East 508 585 39,000  Level Denver Center
Wed 04:19:50 PM 44.1922 -102.4267 96° East 509 586 39,000  Level Denver Center
Wed 04:20:52 PM 44.1750 -102.2292 97° East 513 590 39,000  Level Denver Center
Wed 04:21:54 PM 44.1586 -102.0317 97° East 514 592 39,000  Level Denver Center
Wed 04:22:56 PM 44.1353 -101.7906 98° East 522 601 39,000  Level Denver Center
Wed 04:23:58 PM 44.1183 -101.5908 97° East 523 602 39,000  Level Denver Center
Wed 04:25:00 PM 44.1086 -101.3919 94° East 521 600 39,000  Level Denver Center
Wed 04:26:02 PM 44.0989 -101.2008 94° East 507 583 39,000  Level Denver Center
Wed 04:27:04 PM 44.0892 -101.0144 94° East 492 566 39,000  Level Denver Center
Wed 04:28:06 PM 44.0822 -100.8292 93° East 484 557 39,000  Level Denver Center
Wed 04:29:28 PM 44.0664 -100.5628 95° East 496 571 39,000  Level Minneapolis Center
Wed 04:30:30 PM 44.0533 -100.3692 95° East 502 578 39,000  Level Minneapolis Center
Wed 04:31:32 PM 44.0403 -100.1431 95° East 495 570 39,000  Level Minneapolis Center
Wed 04:32:35 PM 44.0275 -99.9569 95° East 490 564 39,000  Level Minneapolis Center
Wed 04:33:37 PM 44.0167 -99.7708 95° East 487 560 39,000  Level Minneapolis Center
Wed 04:34:39 PM 44.0042 -99.5839 95° East 488 562 39,000  Level Minneapolis Center
Wed 04:35:41 PM 43.9906 -99.3939 96° East 493 567 39,000  Level Minneapolis Center
Wed 04:36:43 PM 43.9753 -99.1644 95° East 498 573 39,000  Level Minneapolis Center
Wed 04:37:47 PM 43.9611 -98.9703 96° East 504 580 39,000  Level Minneapolis Center
Wed 04:38:49 PM 43.9472 -98.7772 96° East 506 582 39,000  Level Minneapolis Center
Wed 04:39:51 PM 43.9317 -98.5797 96° East 505 581 39,000  Level Minneapolis Center
Wed 04:40:53 PM 43.9183 -98.3906 96° East 499 574 39,000  Level Minneapolis Center
Wed 04:41:55 PM 43.9022 -98.2011 97° East 497 572 39,000  Level Minneapolis Center
Wed 04:42:57 PM 43.8842 -97.9753 96° East 495 570 39,000  Level Minneapolis Center
Wed 04:43:59 PM 43.8681 -97.7881 97° East 492 566 39,000  Level Minneapolis Center
Wed 04:45:01 PM 43.8522 -97.6031 97° East 488 562 39,000  Level Minneapolis Center
Wed 04:46:04 PM 43.8356 -97.4172 97° East 489 563 39,000  Level Minneapolis Center
Wed 04:47:06 PM 43.8203 -97.2306 96° East 490 564 39,000  Level Minneapolis Center
Wed 04:48:08 PM 43.8708 -97.0200 72° East 492 566 39,000  Level Minneapolis Center
Wed 04:49:10 PM 43.9814 -96.9178 34° Northeast 484 557 39,000  Level Minneapolis Center
Wed 04:50:12 PM 44.1008 -96.8353 26° Northeast 478 550 39,000  Level Minneapolis Center
Wed 04:51:14 PM 44.2033 -96.7147 40° Northeast 490 564 39,000  Level Minneapolis Center
Wed 04:52:16 PM 44.2597 -96.5422 65° Northeast 492 566 39,000  Level Minneapolis Center
Wed 04:53:18 PM 44.2592 -96.3542 90° East 488 562 39,000  Level Minneapolis Center
Wed 04:54:20 PM 44.2158 -96.1417 106° East 491 565 39,000  Level Minneapolis Center
Wed 04:55:22 PM 44.1811 -95.9681 106° East 501 577 39,000  Level Minneapolis Center
Wed 04:56:25 PM 44.1433 -95.7850 106° East 494 568 39,000  Level Minneapolis Center
Wed 04:57:27 PM 44.0964 -95.5636 106° East 497 572 39,000  Level Minneapolis Center
Wed 04:58:29 PM 44.0569 -95.3794 107° East 498 573 39,000  Level Minneapolis Center
Wed 04:59:31 PM 44.0156 -95.1919 107° East 506 582 39,000  Level Minneapolis Center
Wed 05:00:33 PM 43.9747 -95.0075 107° East 504 580 39,000  Level Minneapolis Center
Wed 05:01:35 PM 43.9350 -94.8242 107° East 499 574 39,000  Level Minneapolis Center
Wed 05:02:37 PM 43.8939 -94.6406 107° East 501 577 39,000  Level Minneapolis Center
Wed 05:03:40 PM 43.8458 -94.4244 107° East 493 567 39,000  Level Minneapolis Center
Wed 05:04:42 PM 43.8050 -94.2447 107° East 492 566 39,000  Level Minneapolis Center
Wed 05:05:44 PM 43.7614 -94.0556 108° East 494 568 39,000  Level Minneapolis Center
Wed 05:06:46 PM 43.7206 -93.8775 108° East 490 564 39,000  Level Minneapolis Center
Wed 05:07:48 PM 43.6792 -93.6978 108° East 493 567 39,000  Level Minneapolis Center
Wed 05:08:50 PM 43.6378 -93.5181 108° East 494 568 39,000  Level Minneapolis Center
Wed 05:09:52 PM 43.5964 -93.3386 108° East 494 568 39,000  Level Minneapolis Center
Wed 05:10:54 PM 43.5503 -93.1478 108° East 494 568 39,000 -242 Level Minneapolis Center
Wed 05:11:56 PM 43.5072 -92.9686 108° East 495 570 38,500 -823 Descending Minneapolis Center
Wed 05:12:58 PM 43.4561 -92.7550 108° East 495 570 37,300 -720 Descending Minneapolis Center
Wed 05:14:01 PM 43.4131 -92.5778 108° East 493 567 37,000 -144 Descending Minneapolis Center
Wed 05:15:03 PM 43.3692 -92.4017 109° East 491 565 37,000  Level Minneapolis Center
Wed 05:16:05 PM 43.3253 -92.2225 109° East 496 571 37,000 -823 Level Minneapolis Center
Wed 05:17:07 PM 43.2806 -92.0406 109° East 504 580 35,300 -2,129 Descending Minneapolis Center
Wed 05:18:09 PM 43.2289 -91.8247 108° East 502 578 32,600 -2,032 Descending Minneapolis Center
Wed 05:19:11 PM 43.1869 -91.6606 109° East 472 543 31,100 -774 Descending Minneapolis Center
Wed 05:20:13 PM 43.1344 -91.5044 115° Southeast 454 522 31,000 -48 Descending Minneapolis Center
Wed 05:21:15 PM 43.0775 -91.3439 116° Southeast 462 532 31,000 -48 Level Minneapolis Center
Wed 05:22:17 PM 43.0203 -91.1825 116° Southeast 469 540 30,900 -1,152 Descending Minneapolis Center
Wed 05:23:20 PM 42.9639 -91.0228 116° Southeast 470 541 28,600 -2,400 Descending Minneapolis Center
Wed 05:24:22 PM 42.8994 -90.8403 116° Southeast 453 521 25,900 -1,969 Descending Minneapolis Center
Wed 05:25:31 PM 42.8500 -90.6964 115° Southeast 433 498 24,300 -870 Descending Chicago Center
Wed 05:26:33 PM 42.7847 -90.5144 116° Southeast 449 517 24,000 -145 Descending Chicago Center
Wed 05:27:35 PM 42.7292 -90.3583 116° Southeast 461 531 24,000  Level Chicago Center
Wed 05:28:37 PM 42.6739 -90.2069 116° Southeast 450 518 24,000  Level Chicago Center
Wed 05:29:39 PM 42.6194 -90.0539 116° Southeast 453 521 24,000 -97 Level Chicago Center
Wed 05:30:41 PM 42.5575 -89.8883 117° Southeast 459 528 23,800 -720 Descending Chicago Center
Wed 05:31:44 PM 42.5147 -89.7322 110° East 447 514 22,500 -2,016 Descending Chicago Center
Wed 05:32:46 PM 42.4978 -89.5444 97° East 432 497 19,600 -2,613 Descending Chicago Center
Wed 05:33:48 PM 42.4856 -89.3906 96° East 413 475 17,100 -2,419 Descending Chicago Center
Wed 05:34:50 PM 42.4725 -89.2414 97° East 401 461 14,600 -2,419 Descending Chicago Center
Wed 05:35:52 PM 42.4603 -89.1011 97° East 385 443 12,100 -1,742 Descending Chicago Center
Wed 05:36:54 PM 42.4428 -88.9667 100° East 370 426 11,000 -1,065 Descending Chicago Center
Wed 05:37:56 PM 42.4231 -88.8356 101° East 315 362 9,900 -968 Descending Chicago Center
Wed 05:38:58 PM 42.4064 -88.7203 101° East 311 358 9,000 -435 Descending Chicago Center
Wed 05:40:00 PM 42.3892 -88.6044 101° East 313 360 9,000  Level Chicago Center
Wed 05:41:02 PM 42.3719 -88.4906 102° East 312 359 9,000 -480 Level Chicago Center
Wed 05:42:05 PM 42.3428 -88.3992 113° Southeast 272 313 8,000 -960 Descending Chicago Center
Wed 05:43:07 PM 42.2917 -88.3106 128° Southeast 270 311 7,000 -1,016 Descending Chicago Center
Wed 05:44:09 PM 42.2472 -88.2322 127° Southeast 264 304 5,900 -823 Descending Chicago Center
Wed 05:45:11 PM 42.2022 -88.1658 132° Southeast 250 288 5,300 -484 Descending Chicago Center
Wed 05:46:13 PM 42.1603 -88.1253 144° Southeast 195 224 4,900 -774 Descending Chicago Center
Wed 05:47:15 PM 42.1119 -88.0739 142° Southeast 186 214 3,700 -968 Descending Chicago Center
Wed 05:48:17 PM 42.0783 -88.0328 138° Southeast 174 200 2,900 -774 Descending Chicago Center
Wed 05:49:19 PM 42.0458 -87.9956 140° Southeast 164 189 2,100 -726 Descending Chicago Center
Wed 05:50:21 PM 42.0178 -87.9631 139° Southeast 151 174 1,400 -532 Descending Chicago Center
Wed 05:51:23 PM 41.9856 -87.9292 142° Southeast 143 165 1,000 -387 Descending Chicago Center

Login

Don't have an account? Register now (free) for customized features, flight alerts, and more!